Time Latitude Longitude Accuracy (66% radius in meters) Altitude (meters) Speed (km/hour) Bearing (degrees) Battery (%) GPS flag
02:41:31 0.000000 0.000000 0 0 0 0 100 0 delete
02:41:21 0.000000 0.000000 0 0 0 0 100 0 delete
02:41:10 0.000000 0.000000 0 0 0 0 100 0 delete
13:04:11 56.387758 43.737174 22 116.90000152588 0 0 15 1 delete
13:04:01 56.387758 43.737175 13 116.90000152588 0 0 15 1 delete
13:03:50 56.387758 43.737175 11 116.69999694824 0 0 15 1 delete
13:03:38 56.387758 43.737175 6 116.69999694824 0 0 15 1 delete
13:03:26 56.387758 43.737175 7 116.80000305176 0 0 15 1 delete
13:03:15 56.387758 43.737176 12 116.80000305176 0 0 15 1 delete
13:03:03 56.387758 43.737176 27 116.80000305176 0 0 15 1 delete
13:02:51 56.387758 43.737177 22 116.90000152588 0 0 15 1 delete
13:02:40 56.387758 43.737177 11 116.90000152588 0 0 15 1 delete
13:02:29 56.387758 43.737177 31 117 0 0 15 1 delete
13:02:18 56.387759 43.737178 8 117 0 0 15 1 delete
13:02:06 56.387759 43.737178 7 117.09999847412 0 0 15 1 delete
13:01:55 56.387759 43.737178 9 117.19999694824 0 0 15 1 delete
13:01:43 56.387759 43.737179 12 117.30000305176 0 0 15 1 delete
13:01:32 56.387759 43.737180 13 117.40000152588 0 0 15 1 delete
13:01:21 56.387759 43.737180 23 117.40000152588 0 0 15 1 delete
13:01:10 56.387759 43.737180 7 117.40000152588 0 0 15 1 delete
13:00:59 56.387760 43.737181 13 117.5 0 0 15 1 delete
13:00:46 56.387760 43.737181 46 117.5 0 0 15 1 delete
13:00:36 56.387760 43.737182 18 117.30000305176 0 0 15 1 delete
13:00:25 56.387760 43.737182 10 117.30000305176 0 0 15 1 delete
13:00:14 56.387760 43.737182 14 117 0 0 15 1 delete
13:00:02 56.387760 43.737183 12 117 0 0 15 1 delete
12:59:49 56.387759 43.737183 13 116.40000152588 0 0 15 1 delete
12:59:39 56.387759 43.737184 12 116.5 0 0 15 1 delete
12:59:27 56.387759 43.737185 21 116.69999694824 0 0 15 1 delete
12:59:17 56.387760 43.737186 26 116.69999694824 0 0 15 1 delete
12:59:05 56.387760 43.737187 21 116.80000305176 0 0 15 1 delete
12:58:54 56.387760 43.737187 12 116.90000152588 0 0 15 1 delete
12:58:41 56.387760 43.737188 11 117 0 0 15 1 delete
12:58:30 56.387760 43.737188 15 117 0 0 15 1 delete
12:58:17 56.387760 43.737189 8 117.19999694824 0 0 15 1 delete
12:58:06 56.387761 43.737190 5 117.30000305176 0 0 15 1 delete
12:57:53 56.387761 43.737190 7 117.30000305176 0 0 15 1 delete
12:57:42 56.387761 43.737190 12 117.40000152588 0 0 15 1 delete
12:57:31 56.387761 43.737191 10 117.40000152588 0 0 15 1 delete
12:57:20 56.387761 43.737191 14 117.40000152588 0 0 15 1 delete
12:57:07 56.387761 43.737191 13 117.19999694824 0 0 15 1 delete
12:56:57 56.387761 43.737191 5 117.19999694824 0 0 15 1 delete
12:56:45 56.387761 43.737192 7 117.30000305176 0 0 15 1 delete
12:56:33 56.387762 43.737192 9 117.30000305176 0 0 15 1 delete
12:56:22 56.387762 43.737193 7 117.40000152588 0 0 15 1 delete
12:56:11 56.387762 43.737193 6 117.40000152588 0 0 15 1 delete
12:56:00 56.387762 43.737193 16 117.40000152588 0 0 15 1 delete
12:55:49 56.387763 43.737194 7 117.5 0 0 15 1 delete
12:55:38 56.387763 43.737194 6 117.59999847412 0 0 15 1 delete
12:55:25 56.387763 43.737194 5 117.59999847412 0 0 15 1 delete